createdAt,value
2023-05-03T00:01:44.307Z,6.00
2023-05-03T00:04:11.749Z,13.50
2023-05-03T00:06:53.793Z,11.75
2023-05-03T00:09:43.048Z,9.25
2023-05-03T00:12:29.694Z,9.00
2023-05-03T00:15:18.535Z,20.75
2023-05-03T00:17:46.259Z,22.25
2023-05-03T00:20:13.365Z,2.00
2023-05-03T00:22:40.405Z,12.50
2023-05-03T00:25:09.922Z,19.25
2023-05-03T00:27:37.216Z,13.75
2023-05-03T00:30:05.184Z,16.75
2023-05-03T00:32:32.455Z,10.50
2023-05-03T00:34:59.432Z,13.50
2023-05-03T00:37:27.229Z,13.50
2023-05-03T00:39:54.221Z,15.00
2023-05-03T00:42:21.159Z,12.00
2023-05-03T00:44:48.059Z,13.50
2023-05-03T00:47:16.615Z,11.25
2023-05-03T00:49:44.869Z,13.50
2023-05-03T00:52:12.139Z,12.75
2023-05-03T00:54:39.845Z,5.75
2023-05-03T00:57:07.065Z,8.50
2023-05-03T00:59:34.672Z,10.00
2023-05-03T01:02:02.141Z,12.75
2023-05-03T01:04:29.960Z,7.25
2023-05-03T01:07:18.017Z,9.75
2023-05-03T01:10:21.475Z,16.25
2023-05-03T01:13:29.631Z,17.25
2023-05-03T01:16:49.001Z,11.75
2023-05-03T01:19:52.223Z,10.25
2023-05-03T01:22:41.844Z,10.75
2023-05-03T01:25:11.218Z,6.00
2023-05-03T01:27:38.964Z,4.50
2023-05-03T01:30:07.762Z,10.25
2023-05-03T01:33:12.015Z,11.50
2023-05-03T01:36:09.505Z,22.00
2023-05-03T01:38:38.180Z,22.25
2023-05-03T01:41:10.778Z,15.00
2023-05-03T01:43:39.188Z,13.25
2023-05-03T01:46:06.133Z,13.00
2023-05-03T01:48:33.222Z,11.25
2023-05-03T01:51:00.528Z,13.00
2023-05-03T01:53:27.518Z,11.75
2023-05-03T01:55:54.478Z,11.75
2023-05-03T01:58:21.370Z,10.00
2023-05-03T02:00:49.015Z,10.50
2023-05-03T02:03:16.027Z,18.00
2023-05-03T02:05:42.941Z,21.00
2023-05-03T02:08:09.866Z,18.00
2023-05-03T02:10:36.845Z,19.00
2023-05-03T02:13:03.979Z,25.75
2023-05-03T02:15:32.239Z,17.50
2023-05-03T02:18:02.602Z,15.00
2023-05-03T02:20:32.729Z,18.25
2023-05-03T02:22:59.789Z,15.25
2023-05-03T02:25:27.707Z,12.75
2023-05-03T02:27:54.760Z,11.75
2023-05-03T02:30:22.061Z,9.75
2023-05-03T02:32:49.009Z,6.00
2023-05-03T02:35:16.010Z,11.25
2023-05-03T02:37:42.945Z,7.25
2023-05-03T02:40:10.167Z,7.00
2023-05-03T02:42:37.199Z,4.25
2023-05-03T02:45:04.792Z,6.25
2023-05-03T02:47:31.871Z,5.25
2023-05-03T02:49:58.805Z,5.00
2023-05-03T02:52:25.803Z,10.00
2023-05-03T02:54:52.704Z,12.75
2023-05-03T02:57:19.625Z,9.50
2023-05-03T02:59:46.501Z,19.50
2023-05-03T03:02:13.516Z,17.25
2023-05-03T03:04:40.394Z,15.00
2023-05-03T03:07:07.336Z,14.25
2023-05-03T03:09:34.276Z,13.00
2023-05-03T03:12:03.706Z,11.00
2023-05-03T03:14:30.903Z,14.50
2023-05-03T03:16:58.579Z,11.00
2023-05-03T03:19:25.609Z,11.50
2023-05-03T03:21:52.659Z,9.25
2023-05-03T03:24:19.549Z,10.50
2023-05-03T03:26:46.478Z,12.50
2023-05-03T03:29:13.385Z,12.00
2023-05-03T03:31:40.481Z,12.50
2023-05-03T03:34:07.460Z,4.75
2023-05-03T03:36:34.376Z,11.00
2023-05-03T03:39:01.314Z,27.50
2023-05-03T03:41:28.258Z,23.00
2023-05-03T03:43:55.171Z,18.00
2023-05-03T03:46:22.223Z,17.50
2023-05-03T03:48:49.214Z,19.00
2023-05-03T03:51:16.357Z,22.50
2023-05-03T03:53:43.496Z,26.00
2023-05-03T03:56:10.481Z,34.50
2023-05-03T03:58:37.460Z,37.00
2023-05-03T04:01:04.758Z,27.75
2023-05-03T04:03:31.747Z,35.00
2023-05-03T04:05:58.680Z,28.00
2023-05-03T04:08:25.659Z,22.00
2023-05-03T04:10:52.598Z,28.00
2023-05-03T04:13:19.613Z,37.00
2023-05-03T04:15:46.533Z,35.00
2023-05-03T04:18:13.580Z,36.00
2023-05-03T04:20:40.665Z,31.75
2023-05-03T04:23:07.740Z,40.00
2023-05-03T04:25:37.290Z,41.00
2023-05-03T04:28:04.637Z,34.25
2023-05-03T04:30:32.137Z,34.00
2023-05-03T04:33:00.250Z,34.00
2023-05-03T04:35:27.207Z,28.00
2023-05-03T04:37:54.130Z,22.75
2023-05-03T04:40:21.111Z,34.25
2023-05-03T04:42:48.552Z,36.00
2023-05-03T04:45:15.506Z,28.25
2023-05-03T04:47:42.489Z,26.75
2023-05-03T04:50:11.450Z,22.00
2023-05-03T04:52:38.502Z,31.50
2023-05-03T04:55:05.827Z,24.00
2023-05-03T04:57:34.133Z,20.25
2023-05-03T05:00:01.787Z,18.75
2023-05-03T05:02:29.318Z,26.25
2023-05-03T05:04:56.300Z,23.00
2023-05-03T05:07:23.296Z,27.50
2023-05-03T05:09:50.164Z,25.50
2023-05-03T05:12:17.190Z,31.75
2023-05-03T05:14:44.439Z,20.25
2023-05-03T05:17:11.568Z,27.00
2023-05-03T05:19:38.555Z,25.00
2023-05-03T05:22:05.803Z,20.75
2023-05-03T05:24:32.760Z,28.25
2023-05-03T05:26:59.677Z,26.50
2023-05-03T05:29:26.598Z,27.75
2023-05-03T05:31:53.611Z,30.25
2023-05-03T05:34:20.653Z,23.50
2023-05-03T05:36:47.650Z,20.50
2023-05-03T05:39:14.543Z,22.25
2023-05-03T05:41:41.452Z,26.50
2023-05-03T05:44:08.339Z,20.75
2023-05-03T05:46:35.282Z,22.25
2023-05-03T05:49:02.233Z,29.50
2023-05-03T05:51:30.768Z,33.50
2023-05-03T05:53:58.088Z,30.00
2023-05-03T05:56:25.197Z,30.75
2023-05-03T05:58:52.152Z,34.00
2023-05-03T06:01:19.066Z,31.00
2023-05-03T06:03:45.983Z,24.75
2023-05-03T06:06:12.954Z,33.25
2023-05-03T06:08:39.886Z,31.00
2023-05-03T06:11:06.913Z,26.75
2023-05-03T06:13:38.788Z,24.50
2023-05-03T06:16:06.300Z,26.00
2023-05-03T06:18:33.261Z,26.75
2023-05-03T06:21:00.234Z,24.25
2023-05-03T06:23:28.343Z,27.75
2023-05-03T06:25:55.350Z,22.25
2023-05-03T06:28:22.233Z,21.00
2023-05-03T06:30:50.836Z,18.75
2023-05-03T06:33:17.934Z,14.75
2023-05-03T06:35:47.327Z,18.50
2023-05-03T06:38:14.463Z,22.00
2023-05-03T06:40:44.068Z,17.75
2023-05-03T06:43:10.929Z,20.25
2023-05-03T06:45:39.361Z,18.50
2023-05-03T06:48:07.053Z,14.50
2023-05-03T06:50:34.053Z,20.25
2023-05-03T06:53:01.006Z,15.25
2023-05-03T06:55:28.224Z,21.75
2023-05-03T06:57:55.222Z,18.50
2023-05-03T07:00:23.307Z,22.00
2023-05-03T07:02:50.383Z,19.75
2023-05-03T07:05:17.423Z,19.75
2023-05-03T07:07:44.726Z,16.50
2023-05-03T07:10:11.839Z,14.75
2023-05-03T07:12:38.704Z,20.75
2023-05-03T07:15:05.993Z,15.00
2023-05-03T07:17:32.974Z,13.75
2023-05-03T07:19:59.920Z,17.50
2023-05-03T07:22:27.684Z,18.50
2023-05-03T07:24:59.956Z,16.00
2023-05-03T07:27:27.364Z,13.25
2023-05-03T07:29:54.969Z,11.25
2023-05-03T07:32:22.684Z,12.50
2023-05-03T07:34:49.759Z,8.75
2023-05-03T07:37:17.000Z,12.00
2023-05-03T07:39:43.949Z,11.00
2023-05-03T07:42:10.807Z,7.75
2023-05-03T07:44:37.836Z,9.00
2023-05-03T07:47:04.766Z,7.25
2023-05-03T07:49:35.762Z,8.50
2023-05-03T07:52:03.243Z,6.25
2023-05-03T07:54:30.212Z,8.25
2023-05-03T07:56:57.182Z,9.25
2023-05-03T07:59:24.050Z,7.00
2023-05-03T08:01:51.353Z,6.00
2023-05-03T08:04:18.496Z,8.00
2023-05-03T08:06:45.851Z,9.00
2023-05-03T08:09:12.818Z,8.25
2023-05-03T08:11:41.660Z,7.75
2023-05-03T08:14:10.215Z,7.00
2023-05-03T08:16:37.228Z,9.75
2023-05-03T08:19:05.104Z,9.00
2023-05-03T08:21:33.720Z,10.25
2023-05-03T08:24:01.130Z,5.25
2023-05-03T08:26:30.054Z,7.50
2023-05-03T08:28:57.084Z,8.00
2023-05-03T08:31:24.001Z,7.50
2023-05-03T08:33:51.104Z,6.00
2023-05-03T08:36:18.023Z,5.25
2023-05-03T08:38:45.160Z,3.75
2023-05-03T08:41:39.789Z,5.00
2023-05-03T08:44:08.660Z,7.00
2023-05-03T08:46:37.507Z,6.75
2023-05-03T08:49:07.133Z,6.75
2023-05-03T08:51:35.100Z,8.25
2023-05-03T08:54:02.054Z,6.75
2023-05-03T08:56:32.678Z,8.00
2023-05-03T08:59:07.590Z,5.75
2023-05-03T09:01:37.483Z,7.50
2023-05-03T09:04:05.135Z,7.25
2023-05-03T09:06:35.456Z,9.00
2023-05-03T09:09:07.760Z,8.25
2023-05-03T09:11:36.297Z,12.25
2023-05-03T09:14:12.228Z,10.25
2023-05-03T09:16:41.120Z,10.75
2023-05-03T09:19:12.950Z,13.00
2023-05-03T09:21:43.903Z,10.25
2023-05-03T09:24:17.993Z,10.00
2023-05-03T09:26:46.810Z,14.75
2023-05-03T09:29:34.692Z,11.25
2023-05-03T09:32:06.274Z,11.25
2023-05-03T09:34:34.178Z,10.25
2023-05-03T09:37:01.633Z,13.25
2023-05-03T09:39:28.740Z,10.75
2023-05-03T09:41:57.170Z,11.75
2023-05-03T09:44:42.694Z,13.00
2023-05-03T09:47:10.578Z,13.00
2023-05-03T09:49:38.409Z,12.25
2023-05-03T09:52:07.259Z,13.00
2023-05-03T09:54:38.091Z,13.75
2023-05-03T09:57:06.269Z,12.50
2023-05-03T09:59:35.000Z,11.75
2023-05-03T10:02:05.732Z,13.50
2023-05-03T10:04:43.957Z,13.75
2023-05-03T10:07:18.269Z,17.00
2023-05-03T10:09:47.604Z,14.00
2023-05-03T10:12:17.862Z,12.25
2023-05-03T10:14:50.219Z,16.25
2023-05-03T10:20:23.254Z,14.25
2023-05-03T10:23:05.449Z,19.00
2023-05-03T10:25:33.534Z,19.25
2023-05-03T10:28:04.494Z,16.25
2023-05-03T10:30:36.217Z,16.25
2023-05-03T10:33:14.998Z,15.00
2023-05-03T10:35:44.116Z,13.25
2023-05-03T10:38:20.207Z,14.00
2023-05-03T10:40:47.241Z,15.75
2023-05-03T10:43:42.327Z,15.75
2023-05-03T10:46:33.333Z,16.00
2023-05-03T10:49:18.607Z,16.00
2023-05-03T10:51:45.767Z,15.75
2023-05-03T10:54:12.807Z,16.50
2023-05-03T10:56:50.472Z,14.25
2023-05-03T10:59:17.562Z,16.00
2023-05-03T11:01:51.486Z,21.25
2023-05-03T11:04:37.691Z,18.50
2023-05-03T11:07:04.915Z,16.25
2023-05-03T11:09:33.772Z,14.50
2023-05-03T11:12:04.753Z,18.50
2023-05-03T11:14:31.850Z,15.50
2023-05-03T11:16:59.201Z,15.50
2023-05-03T11:19:27.033Z,16.00
2023-05-03T11:21:54.296Z,15.25
2023-05-03T11:24:21.408Z,15.00
2023-05-03T11:26:49.110Z,15.00
2023-05-03T11:29:17.408Z,17.75
2023-05-03T11:31:44.917Z,19.00
2023-05-03T11:34:13.605Z,15.00
2023-05-03T11:36:42.372Z,15.00
2023-05-03T11:39:09.617Z,14.25
2023-05-03T11:41:36.706Z,18.00
2023-05-03T11:44:15.995Z,19.00
2023-05-03T11:46:44.102Z,17.00
2023-05-03T11:49:11.573Z,18.25
2023-05-03T11:51:38.647Z,14.00
2023-05-03T11:54:20.905Z,17.00
2023-05-03T11:56:55.372Z,20.75
2023-05-03T11:59:34.719Z,15.00
2023-05-03T12:02:04.844Z,17.50
2023-05-03T12:04:32.226Z,16.75
2023-05-03T12:07:00.734Z,15.25
2023-05-03T12:09:29.387Z,15.50
2023-05-03T12:11:58.297Z,15.00
2023-05-03T12:14:26.330Z,16.50
2023-05-03T12:16:56.564Z,18.00
2023-05-03T12:19:28.250Z,17.75
2023-05-03T12:22:17.775Z,22.75
2023-05-03T12:24:45.576Z,19.25
2023-05-03T12:27:14.247Z,24.25
2023-05-03T12:29:42.043Z,22.50
2023-05-03T12:34:38.408Z,20.00
2023-05-03T12:37:11.104Z,20.50
2023-05-03T12:39:40.138Z,18.00
2023-05-03T12:42:09.437Z,16.50
2023-05-03T12:44:42.635Z,18.00
2023-05-03T12:47:10.639Z,20.75
2023-05-03T12:49:39.209Z,23.25
2023-05-03T12:52:35.282Z,20.00
2023-05-03T12:54:55.967Z,18.75
2023-05-03T12:57:24.281Z,21.25
2023-05-03T12:59:54.391Z,19.75
2023-05-03T13:05:11.254Z,17.25
2023-05-03T13:07:42.706Z,18.25
2023-05-03T13:12:40.969Z,15.50
2023-05-03T13:15:08.893Z,22.00
2023-05-03T13:17:35.969Z,24.75
2023-05-03T13:20:07.378Z,22.00
2023-05-03T13:22:34.364Z,23.25
2023-05-03T13:25:01.390Z,14.75
2023-05-03T13:27:28.469Z,18.25
2023-05-03T13:29:55.389Z,19.00
2023-05-03T13:32:22.626Z,23.75
2023-05-03T13:34:49.503Z,21.00
2023-05-03T13:37:19.016Z,23.50
2023-05-03T13:39:46.849Z,26.75
2023-05-03T13:42:13.779Z,24.50
2023-05-03T13:44:40.906Z,19.00
2023-05-03T13:47:07.808Z,31.25
2023-05-03T13:49:35.426Z,23.50
2023-05-03T13:52:02.405Z,23.25
2023-05-03T13:54:30.881Z,20.25
2023-05-03T13:56:59.055Z,23.00
2023-05-03T13:59:26.156Z,21.75
2023-05-03T14:01:53.143Z,20.50
2023-05-03T14:04:20.216Z,16.00
2023-05-03T14:06:47.256Z,21.00
2023-05-03T14:09:22.521Z,16.50
2023-05-03T14:11:49.444Z,18.50
2023-05-03T14:14:16.495Z,21.75
2023-05-03T14:16:44.244Z,15.75
2023-05-03T14:19:11.824Z,18.25
2023-05-03T14:21:39.107Z,17.75
2023-05-03T14:24:06.908Z,18.25
2023-05-03T14:26:34.467Z,17.00
2023-05-03T14:29:01.708Z,14.50
2023-05-03T14:31:28.955Z,19.00
2023-05-03T14:33:56.037Z,17.50
2023-05-03T14:36:23.371Z,15.75
2023-05-03T14:38:50.337Z,14.25
2023-05-03T14:41:17.277Z,11.75
2023-05-03T14:43:44.163Z,13.50
2023-05-03T14:46:11.293Z,15.75
2023-05-03T14:48:38.549Z,15.75
2023-05-03T14:51:05.729Z,14.50
2023-05-03T14:53:32.712Z,15.00
2023-05-03T14:56:00.143Z,15.00
2023-05-03T14:58:27.778Z,12.75
2023-05-03T15:00:54.862Z,12.75
2023-05-03T15:03:21.873Z,11.00
2023-05-03T15:05:50.370Z,8.00
2023-05-03T15:08:19.523Z,6.00
2023-05-03T15:10:47.999Z,8.00
2023-05-03T15:13:16.664Z,7.75
2023-05-03T15:15:44.509Z,6.50
2023-05-03T15:18:13.743Z,7.00
2023-05-03T15:20:40.682Z,7.75
2023-05-03T15:23:07.570Z,5.00
2023-05-03T15:25:34.546Z,6.00
2023-05-03T15:28:04.193Z,10.25
2023-05-03T15:30:32.421Z,7.00
2023-05-03T15:32:59.470Z,13.75
2023-05-03T15:35:26.515Z,9.75
2023-05-03T15:37:53.490Z,11.00
2023-05-03T15:40:23.696Z,9.00
2023-05-03T15:42:52.130Z,13.00
2023-05-03T15:45:19.477Z,9.00
2023-05-03T15:47:46.594Z,9.25
2023-05-03T15:50:14.109Z,7.50
2023-05-03T15:52:42.497Z,10.00
2023-05-03T15:55:10.112Z,7.25
2023-05-03T15:57:37.512Z,11.75
2023-05-03T16:00:15.215Z,8.25
2023-05-03T16:02:42.861Z,14.00
2023-05-03T16:05:11.298Z,8.00
2023-05-03T16:07:38.290Z,7.00
2023-05-03T16:10:06.720Z,3.00
2023-05-03T16:12:33.907Z,5.75
2023-05-03T16:15:01.228Z,5.00
2023-05-03T16:17:28.363Z,6.00
2023-05-03T16:19:55.391Z,5.25
2023-05-03T16:22:22.333Z,6.75
2023-05-03T16:24:49.438Z,4.75
2023-05-03T16:27:16.344Z,4.25
2023-05-03T16:29:43.211Z,4.00
2023-05-03T16:32:11.228Z,5.25
2023-05-03T16:34:38.558Z,2.00
2023-05-03T16:37:05.715Z,5.00
2023-05-03T16:39:32.909Z,3.75
2023-05-03T16:41:59.813Z,3.50
2023-05-03T16:44:27.059Z,4.00
2023-05-03T16:46:53.981Z,3.00
2023-05-03T16:49:21.076Z,2.25
2023-05-03T16:51:48.192Z,3.25
2023-05-03T16:54:17.029Z,2.75
2023-05-03T16:56:44.660Z,3.00
2023-05-03T16:59:12.013Z,3.25
2023-05-03T17:01:39.028Z,2.50
2023-05-03T17:04:06.792Z,2.00
2023-05-03T17:06:33.810Z,3.25
2023-05-03T17:09:00.904Z,3.00
2023-05-03T17:11:27.831Z,4.00
2023-05-03T17:13:54.753Z,0.00
2023-05-03T17:16:22.929Z,2.00
2023-05-03T17:18:50.205Z,3.50
2023-05-03T17:21:18.828Z,3.00
2023-05-03T17:23:46.369Z,1.75
2023-05-03T17:26:14.592Z,2.00
2023-05-03T17:28:41.835Z,2.00
2023-05-03T17:31:08.851Z,2.50
2023-05-03T17:33:36.522Z,1.50
2023-05-03T17:36:06.814Z,2.75
2023-05-03T17:38:34.985Z,3.75
2023-05-03T17:41:08.725Z,2.00
2023-05-03T17:43:36.650Z,2.00
2023-05-03T17:46:11.360Z,2.00
2023-05-03T17:48:40.133Z,3.00
2023-05-03T17:51:08.267Z,2.00
2023-05-03T17:53:35.465Z,3.00
2023-05-03T17:56:02.379Z,3.75
2023-05-03T17:58:29.257Z,5.00
2023-05-03T18:00:57.349Z,0.00
2023-05-03T18:04:07.751Z,5.00
2023-05-03T18:06:34.696Z,2.50
2023-05-03T18:09:01.652Z,4.00
2023-05-03T18:11:56.756Z,3.00
2023-05-03T18:14:23.628Z,3.00
2023-05-03T18:16:52.350Z,3.00
2023-05-03T18:19:20.238Z,1.75
2023-05-03T18:21:47.594Z,1.75
2023-05-03T18:24:15.885Z,3.25
2023-05-03T18:26:42.800Z,2.00
2023-05-03T18:29:10.248Z,3.50
2023-05-03T18:31:54.966Z,4.25
2023-05-03T18:34:21.930Z,4.50
2023-05-03T18:36:48.823Z,5.50
2023-05-03T18:39:16.246Z,5.25
2023-05-03T18:41:43.151Z,7.00
2023-05-03T18:44:10.099Z,10.75
2023-05-03T18:46:39.988Z,8.00
2023-05-03T18:49:07.048Z,11.00
2023-05-03T18:51:34.013Z,10.00
2023-05-03T18:54:01.648Z,7.25
2023-05-03T18:56:30.507Z,9.25
2023-05-03T18:58:57.472Z,6.50
2023-05-03T19:01:26.805Z,10.00
2023-05-03T19:03:54.204Z,1.00
2023-05-03T19:06:21.385Z,6.00
2023-05-03T19:08:49.762Z,8.00
2023-05-03T19:11:17.311Z,6.00
2023-05-03T19:13:47.595Z,9.00
2023-05-03T19:16:17.655Z,10.00
2023-05-03T19:18:45.591Z,10.25
2023-05-03T19:21:12.723Z,10.50
2023-05-03T19:23:39.608Z,12.50
2023-05-03T19:26:06.666Z,10.25
2023-05-03T19:28:33.613Z,9.00
2023-05-03T19:31:04.096Z,15.75
2023-05-03T19:33:31.420Z,15.75
2023-05-03T19:35:58.449Z,12.00
2023-05-03T19:38:25.378Z,11.00
2023-05-03T19:40:57.607Z,13.00
2023-05-03T19:44:04.915Z,7.50
2023-05-03T19:46:33.946Z,11.00
2023-05-03T19:49:01.634Z,11.25
2023-05-03T19:51:28.800Z,17.50
2023-05-03T19:53:56.723Z,11.25
2023-05-03T19:56:25.358Z,14.25
2023-05-03T19:58:52.390Z,14.50
2023-05-03T20:01:19.310Z,18.00
2023-05-03T20:03:47.005Z,22.25
2023-05-03T20:06:14.413Z,20.25
2023-05-03T20:08:41.333Z,11.00
2023-05-03T20:11:08.251Z,18.50
2023-05-03T20:13:35.177Z,24.75
2023-05-03T20:16:05.110Z,17.75
2023-05-03T20:18:32.148Z,15.50
2023-05-03T20:20:59.157Z,14.50
2023-05-03T20:23:27.044Z,14.25
2023-05-03T20:25:53.989Z,11.00
2023-05-03T20:28:20.918Z,18.00
2023-05-03T20:30:47.918Z,12.75
2023-05-03T20:33:15.080Z,23.75
2023-05-03T20:35:42.134Z,20.00
2023-05-03T20:38:09.067Z,23.75
2023-05-03T20:40:35.998Z,23.75
2023-05-03T20:43:03.102Z,21.00
2023-05-03T20:45:30.286Z,18.00
2023-05-03T20:47:57.213Z,25.50
2023-05-03T20:50:24.170Z,34.00
2023-05-03T20:52:51.158Z,28.00
2023-05-03T20:55:18.235Z,26.75
2023-05-03T20:57:45.353Z,23.50
2023-05-03T21:00:12.783Z,21.25
2023-05-03T21:02:39.951Z,14.75
2023-05-03T21:05:21.017Z,27.25
2023-05-03T21:07:48.523Z,29.25
2023-05-03T21:10:15.581Z,42.00
2023-05-03T21:12:42.551Z,44.67
2023-05-03T21:15:09.999Z,44.33
2023-05-03T21:17:37.049Z,38.00
2023-05-03T21:20:04.585Z,38.50
2023-05-03T21:22:31.707Z,36.75
2023-05-03T21:24:59.306Z,34.00
2023-05-03T21:27:26.201Z,25.50
2023-05-03T21:29:53.326Z,18.00
2023-05-03T21:32:20.242Z,31.25
2023-05-03T21:34:47.248Z,33.50
2023-05-03T21:37:14.122Z,20.50
2023-05-03T21:39:41.071Z,32.50
2023-05-03T21:42:08.026Z,29.00
2023-05-03T21:44:35.336Z,34.25
2023-05-03T21:47:03.096Z,33.75
2023-05-03T21:49:30.041Z,33.25
2023-05-03T21:51:56.954Z,35.75
2023-05-03T21:54:23.992Z,34.75
2023-05-03T21:56:50.925Z,32.50
2023-05-03T21:59:17.844Z,31.25
2023-05-03T22:01:44.794Z,33.75
2023-05-03T22:04:11.753Z,27.50
2023-05-03T22:06:38.713Z,27.50
2023-05-03T22:09:07.019Z,22.50
2023-05-03T22:11:33.940Z,23.50
2023-05-03T22:14:07.972Z,18.25
2023-05-03T22:16:37.947Z,15.50
2023-05-03T22:19:05.587Z,28.25
2023-05-03T22:21:32.803Z,19.25
2023-05-03T22:23:59.721Z,15.00
2023-05-03T22:26:28.212Z,22.50
2023-05-03T22:28:55.095Z,19.00
2023-05-03T22:31:22.124Z,15.00
2023-05-03T22:33:49.247Z,19.25
2023-05-03T22:36:16.339Z,17.25
2023-05-03T22:38:43.556Z,12.00
2023-05-03T22:41:10.734Z,16.25
2023-05-03T22:43:37.927Z,11.00
2023-05-03T22:46:04.995Z,11.50
2023-05-03T22:48:32.842Z,13.50
2023-05-03T22:51:00.151Z,16.00
2023-05-03T22:53:27.255Z,19.75
2023-05-03T22:56:02.241Z,30.00
2023-05-03T22:58:29.469Z,19.50
2023-05-03T23:00:56.935Z,20.50
2023-05-03T23:03:24.097Z,15.00
2023-05-03T23:05:54.818Z,18.75
2023-05-03T23:08:21.953Z,16.25
2023-05-03T23:10:48.932Z,21.00
2023-05-03T23:13:17.029Z,15.25
2023-05-03T23:15:44.426Z,15.00
2023-05-03T23:18:11.377Z,15.25
2023-05-03T23:20:38.693Z,14.00
2023-05-03T23:23:05.560Z,14.75
2023-05-03T23:25:32.594Z,20.00
2023-05-03T23:27:59.583Z,22.00
2023-05-03T23:30:27.316Z,20.25
2023-05-03T23:32:54.725Z,11.00
2023-05-03T23:35:22.075Z,22.00
2023-05-03T23:37:49.028Z,19.00
2023-05-03T23:40:15.969Z,22.00
2023-05-03T23:42:43.634Z,16.50
2023-05-03T23:45:11.043Z,16.25
2023-05-03T23:47:38.149Z,18.50
2023-05-03T23:50:05.925Z,17.75
2023-05-03T23:52:33.144Z,13.75
2023-05-03T23:55:00.130Z,11.75
2023-05-03T23:57:27.075Z,9.00
2023-05-03T23:59:54.182Z,10.25
